Time;durP1;ratioP1;P1;durP2;ratioP2;P2;SDS_P1;SDS_P2;PMS_P1;PMS_P2;Temp;Humidity;BMP_temperature;BMP_pressure;BME280_temperature;BME280_humidity;BME280_pressure;Samples;Min_cycle;Max_cycle;Signal;HPM_P1;HPM_P2
2022/10/16 00:00:35;;;;;;;5.00;2.10;;;13.00;99.90;;;;;;5032895;28;20036;-62
2022/10/16 00:03:01;;;;;;;7.38;2.28;;;13.00;99.90;;;;;;5033713;28;20022;-62
2022/10/16 00:05:26;;;;;;;7.05;2.72;;;12.90;99.90;;;;;;5033505;28;20108;-62
2022/10/16 00:07:52;;;;;;;3.90;1.83;;;12.90;99.90;;;;;;5020342;28;20089;-62
2022/10/16 00:10:17;;;;;;;6.13;2.22;;;12.90;99.90;;;;;;5030920;28;20033;-62
2022/10/16 00:12:43;;;;;;;5.53;2.22;;;12.90;99.90;;;;;;5022714;28;20080;-62
2022/10/16 00:15:09;;;;;;;5.78;2.45;;;12.90;99.90;;;;;;5033119;28;20021;-62
2022/10/16 00:17:34;;;;;;;5.25;2.45;;;12.90;99.90;;;;;;5032718;28;20072;-63
2022/10/16 00:20:00;;;;;;;6.05;2.40;;;12.80;99.90;;;;;;5031967;28;20041;-62
2022/10/16 00:22:25;;;;;;;4.65;1.95;;;12.80;99.90;;;;;;5032793;28;20096;-63
2022/10/16 00:24:51;;;;;;;6.55;2.80;;;12.80;99.90;;;;;;5033356;28;20371;-62
2022/10/16 00:27:16;;;;;;;7.47;2.83;;;12.80;99.90;;;;;;5032701;28;20076;-62
2022/10/16 00:29:43;;;;;;;6.95;2.80;;;12.80;99.90;;;;;;5033082;28;20029;-62
2022/10/16 00:32:08;;;;;;;4.32;2.53;;;12.80;99.90;;;;;;5032737;28;20025;-62
2022/10/16 00:34:34;;;;;;;9.70;2.85;;;12.80;99.90;;;;;;5032748;28;20504;-62
2022/10/16 00:37:00;;;;;;;5.18;2.50;;;12.70;99.90;;;;;;5027834;28;20025;-62
2022/10/16 00:39:26;;;;;;;5.47;3.45;;;12.70;99.90;;;;;;5032497;28;20029;-62
2022/10/16 00:41:51;;;;;;;5.50;2.75;;;12.70;99.90;;;;;;5024919;28;20044;-62
2022/10/16 00:44:47;;;;;;;6.30;3.08;;;12.70;99.90;;;;;;5032614;28;20493;-62
2022/10/16 00:47:36;;;;;;;6.93;2.60;;;12.70;99.90;;;;;;5032593;28;20553;-63
2022/10/16 00:50:06;;;;;;;4.68;2.67;;;12.60;99.90;;;;;;5026093;28;20035;-62
2022/10/16 00:52:32;;;;;;;5.20;2.80;;;12.60;99.90;;;;;;5028374;28;20034;-62
2022/10/16 00:54:58;;;;;;;5.68;2.55;;;12.60;99.90;;;;;;5031907;28;20028;-62
2022/10/16 00:57:24;;;;;;;5.32;3.17;;;12.60;99.90;;;;;;5025875;28;20537;-63
2022/10/16 00:59:50;;;;;;;7.10;3.20;;;12.60;99.90;;;;;;5031398;28;20120;-62
2022/10/16 01:02:17;;;;;;;6.85;2.50;;;12.60;99.90;;;;;;5032467;28;20021;-62
2022/10/16 01:04:50;;;;;;;4.20;3.25;;;12.70;99.90;;;;;;5032203;28;20469;-63
2022/10/16 01:07:48;;;;;;;5.38;2.92;;;12.70;99.90;;;;;;5032610;28;20030;-62
2022/10/16 01:10:19;;;;;;;5.10;2.65;;;12.60;99.90;;;;;;5020118;28;20036;-62
2022/10/16 01:12:55;;;;;;;7.65;2.92;;;12.60;99.90;;;;;;5023642;28;20456;-62
2022/10/16 01:15:38;;;;;;;6.28;3.08;;;12.60;99.90;;;;;;5032326;28;20029;-62
2022/10/16 01:18:08;;;;;;;7.93;2.63;;;12.60;99.90;;;;;;5031936;28;20025;-62
2022/10/16 01:20:42;;;;;;;5.57;2.63;;;12.60;99.90;;;;;;5032073;28;20466;-62
2022/10/16 01:23:21;;;;;;;4.70;2.92;;;12.70;99.90;;;;;;5028438;28;20104;-62
2022/10/16 01:26:27;;;;;;;3.70;2.55;;;12.70;99.90;;;;;;5028901;28;20014;-62
2022/10/16 01:29:16;;;;;;;6.55;2.75;;;12.60;99.90;;;;;;5028019;28;20022;-63
2022/10/16 01:31:46;;;;;;;3.88;2.45;;;12.60;99.90;;;;;;5020034;28;20072;-62
2022/10/16 01:34:16;;;;;;;8.57;2.38;;;12.60;99.90;;;;;;5032026;28;20025;-62
2022/10/16 01:36:55;;;;;;;7.57;2.67;;;12.70;99.90;;;;;;5031986;28;20080;-63
2022/10/16 01:39:24;;;;;;;5.90;2.88;;;12.70;99.90;;;;;;5032124;28;20122;-62
2022/10/16 01:41:58;;;;;;;4.60;2.42;;;12.70;99.90;;;;;;5032120;28;20041;-62
2022/10/16 01:44:29;;;;;;;4.60;2.50;;;12.70;99.90;;;;;;5031900;28;20516;-62
2022/10/16 01:46:55;;;;;;;3.95;2.03;;;12.70;99.90;;;;;;5031864;28;20026;-62
2022/10/16 01:49:24;;;;;;;3.10;2.10;;;12.80;99.90;;;;;;5030444;28;20031;-62
2022/10/16 01:51:54;;;;;;;4.47;2.15;;;12.80;99.90;;;;;;5039694;28;20053;-62
2022/10/16 01:54:21;;;;;;;3.50;1.98;;;12.90;99.90;;;;;;5031892;28;20030;-62
2022/10/16 01:56:50;;;;;;;4.55;2.13;;;12.90;99.90;;;;;;5032021;28;20028;-62
2022/10/16 01:59:19;;;;;;;4.30;2.10;;;12.90;99.90;;;;;;5030324;28;20017;-62
2022/10/16 02:01:49;;;;;;;6.03;2.05;;;12.90;99.90;;;;;;5031677;28;20141;-62
2022/10/16 02:04:26;;;;;;;4.57;2.45;;;12.90;99.90;;;;;;5019593;28;20025;-62
2022/10/16 02:06:52;;;;;;;5.88;2.00;;;13.00;99.90;;;;;;5034942;28;20060;-62
2022/10/16 02:09:18;;;;;;;3.15;1.83;;;13.00;99.90;;;;;;5035612;28;20030;-62
2022/10/16 02:11:44;;;;;;;3.00;1.98;;;13.00;99.90;;;;;;5022205;28;20041;-62
2022/10/16 02:14:10;;;;;;;4.13;2.28;;;13.00;99.90;;;;;;5035520;28;20040;-63
2022/10/16 02:16:39;;;;;;;3.85;2.10;;;13.00;99.90;;;;;;5035160;28;20473;-62
2022/10/16 02:19:06;;;;;;;3.70;2.00;;;13.00;99.90;;;;;;5035231;28;20013;-62
2022/10/16 02:21:47;;;;;;;6.63;2.50;;;13.00;99.90;;;;;;5033773;28;20029;-62
2022/10/16 02:24:19;;;;;;;5.93;2.17;;;13.10;99.90;;;;;;5035166;28;20111;-62
2022/10/16 02:27:04;;;;;;;3.30;2.13;;;13.00;99.90;;;;;;5023385;28;20026;-62
2022/10/16 02:29:30;;;;;;;4.28;2.13;;;13.10;99.90;;;;;;5034879;28;20022;-62
2022/10/16 02:32:02;;;;;;;3.45;2.20;;;13.00;99.90;;;;;;5035185;28;20030;-62
2022/10/16 02:34:29;;;;;;;3.90;1.90;;;13.00;99.90;;;;;;5034285;28;20096;-62
2022/10/16 02:36:56;;;;;;;4.50;2.30;;;13.00;99.90;;;;;;5035290;28;20529;-62
2022/10/16 02:39:22;;;;;;;4.85;2.00;;;13.00;99.90;;;;;;5034847;28;20037;-62
2022/10/16 02:41:48;;;;;;;3.05;2.15;;;13.00;99.90;;;;;;5034709;28;20120;-62
2022/10/16 02:44:13;;;;;;;4.18;2.40;;;13.00;99.90;;;;;;5034854;28;20473;-62
2022/10/16 02:46:39;;;;;;;3.53;1.80;;;13.00;99.90;;;;;;5034824;28;20029;-62
2022/10/16 02:49:04;;;;;;;3.47;1.75;;;13.00;99.90;;;;;;5033885;28;20033;-62
2022/10/16 02:51:30;;;;;;;3.30;1.83;;;13.00;99.90;;;;;;5033238;28;20076;-62
2022/10/16 02:53:55;;;;;;;2.55;1.70;;;13.00;99.90;;;;;;5034637;28;20041;-62
2022/10/16 02:56:21;;;;;;;3.88;1.85;;;13.00;99.90;;;;;;5033633;28;20076;-62
2022/10/16 02:58:47;;;;;;;3.00;1.70;;;13.00;99.90;;;;;;5033357;28;20032;-62
2022/10/16 03:01:14;;;;;;;4.18;2.03;;;13.00;99.90;;;;;;5034387;28;20072;-62
2022/10/16 03:03:39;;;;;;;3.75;1.88;;;13.00;99.90;;;;;;5022152;28;20017;-62
2022/10/16 03:06:05;;;;;;;4.28;1.73;;;12.90;99.90;;;;;;5033063;28;20112;-62
2022/10/16 03:08:31;;;;;;;3.72;2.10;;;12.90;99.90;;;;;;5034577;28;20025;-62
2022/10/16 03:10:56;;;;;;;3.53;1.70;;;12.90;99.90;;;;;;5024451;28;20030;-62
2022/10/16 03:13:22;;;;;;;3.70;2.00;;;12.90;99.90;;;;;;5031047;28;20033;-62
2022/10/16 03:15:47;;;;;;;3.88;1.63;;;12.90;99.90;;;;;;5034434;28;20056;-62
2022/10/16 03:18:13;;;;;;;5.38;1.73;;;12.80;99.90;;;;;;5033194;28;20422;-62
2022/10/16 03:20:38;;;;;;;3.03;1.70;;;12.80;99.90;;;;;;5034114;28;20470;-62
2022/10/16 03:23:04;;;;;;;3.70;1.67;;;12.80;99.90;;;;;;5034132;28;20386;-62
2022/10/16 03:25:29;;;;;;;4.72;1.83;;;12.80;99.90;;;;;;5034315;28;20025;-62
2022/10/16 03:27:55;;;;;;;5.13;1.63;;;12.80;99.90;;;;;;5033742;28;20060;-62
2022/10/16 03:30:20;;;;;;;2.63;1.75;;;12.80;99.90;;;;;;5034201;28;20108;-62
2022/10/16 03:32:46;;;;;;;3.15;2.15;;;12.80;99.90;;;;;;5033978;28;20104;-62
2022/10/16 03:35:12;;;;;;;3.83;1.95;;;12.80;99.90;;;;;;5033957;28;20112;-62
2022/10/16 03:37:38;;;;;;;3.92;1.67;;;12.80;99.90;;;;;;5033668;28;20527;-62
2022/10/16 03:40:05;;;;;;;3.47;1.55;;;12.80;99.90;;;;;;5034224;28;20464;-62
2022/10/16 03:42:30;;;;;;;3.47;1.38;;;12.80;99.90;;;;;;5032093;28;20060;-62
2022/10/16 03:44:56;;;;;;;2.28;1.88;;;12.80;99.90;;;;;;5033958;28;20025;-62
2022/10/16 03:47:23;;;;;;;5.85;1.85;;;12.80;99.90;;;;;;5033475;28;20028;-62
2022/10/16 03:49:49;;;;;;;2.58;1.90;;;12.80;99.90;;;;;;5033569;28;20021;-62
2022/10/16 03:52:14;;;;;;;3.15;1.67;;;12.80;99.90;;;;;;5033441;28;20496;-62
2022/10/16 03:54:40;;;;;;;3.30;1.88;;;12.80;99.90;;;;;;5033813;28;20033;-63
2022/10/16 03:57:05;;;;;;;4.22;1.60;;;12.70;99.90;;;;;;5012824;28;20036;-62
2022/10/16 03:59:31;;;;;;;3.42;1.70;;;12.70;99.90;;;;;;5026964;28;20092;-62
2022/10/16 04:01:56;;;;;;;4.28;1.88;;;12.70;99.90;;;;;;5032979;28;20067;-62
2022/10/16 04:04:22;;;;;;;3.97;1.60;;;12.70;99.90;;;;;;5030519;28;20026;-62
2022/10/16 04:06:47;;;;;;;2.67;1.77;;;12.70;99.90;;;;;;5026498;28;20469;-62
2022/10/16 04:09:13;;;;;;;3.65;1.88;;;12.60;99.90;;;;;;5029650;28;20036;-62
2022/10/16 04:11:39;;;;;;;6.43;1.60;;;12.70;99.90;;;;;;5019674;28;20034;-62
2022/10/16 04:14:04;;;;;;;3.97;2.10;;;12.70;99.90;;;;;;5032044;28;20024;-62
2022/10/16 04:16:30;;;;;;;3.70;1.60;;;12.70;99.90;;;;;;5032832;28;20021;-62
2022/10/16 04:18:55;;;;;;;2.28;1.65;;;12.70;99.90;;;;;;5033032;28;20026;-62
2022/10/16 04:21:21;;;;;;;3.33;1.63;;;12.70;99.90;;;;;;5032550;28;20044;-63
2022/10/16 04:23:46;;;;;;;3.78;1.77;;;12.70;99.90;;;;;;5033088;28;20021;-62
2022/10/16 04:26:12;;;;;;;2.13;1.38;;;12.70;99.90;;;;;;5030780;28;20080;-62
2022/10/16 04:28:37;;;;;;;3.08;1.70;;;12.70;99.90;;;;;;5032476;28;20032;-62
2022/10/16 04:31:06;;;;;;;3.63;1.50;;;12.60;99.90;;;;;;5031938;28;20107;-62
2022/10/16 04:33:33;;;;;;;4.40;1.88;;;12.60;99.90;;;;;;5032777;28;20057;-62
2022/10/16 04:36:00;;;;;;;4.10;2.10;;;12.60;99.90;;;;;;5032341;28;20475;-62
2022/10/16 04:38:26;;;;;;;3.35;1.80;;;12.60;99.90;;;;;;5032107;28;20044;-62
2022/10/16 04:40:52;;;;;;;4.13;2.28;;;12.60;99.90;;;;;;5032519;28;20396;-62
2022/10/16 04:43:17;;;;;;;2.42;1.83;;;12.60;99.90;;;;;;5032249;28;20045;-62
2022/10/16 04:45:43;;;;;;;3.22;1.80;;;12.60;99.90;;;;;;5031342;28;20017;-62
2022/10/16 04:48:09;;;;;;;4.25;1.95;;;12.50;99.90;;;;;;5032587;28;20021;-62
2022/10/16 04:50:34;;;;;;;3.78;1.42;;;12.50;99.90;;;;;;5032537;28;20033;-62
2022/10/16 04:53:00;;;;;;;6.43;2.08;;;12.50;99.90;;;;;;5032781;28;20041;-63
2022/10/16 04:55:25;;;;;;;3.97;1.80;;;12.50;99.90;;;;;;5032461;28;20100;-62
2022/10/16 04:57:51;;;;;;;3.75;1.52;;;12.50;99.90;;;;;;5032591;28;20113;-62
2022/10/16 05:00:16;;;;;;;2.15;1.50;;;12.50;99.90;;;;;;5032234;28;20454;-62
2022/10/16 05:02:42;;;;;;;5.65;2.20;;;12.50;99.90;;;;;;5032431;28;20037;-62
2022/10/16 05:05:07;;;;;;;3.40;1.50;;;12.50;99.90;;;;;;5032225;28;20040;-62
2022/10/16 05:07:33;;;;;;;2.25;1.38;;;12.50;99.90;;;;;;5031131;28;20053;-62
2022/10/16 05:09:58;;;;;;;3.22;1.63;;;12.50;99.90;;;;;;5045771;28;20485;-62
2022/10/16 05:12:24;;;;;;;4.03;1.52;;;12.50;99.90;;;;;;5032063;28;20048;-62
2022/10/16 05:14:49;;;;;;;2.78;1.42;;;12.50;99.90;;;;;;5031972;28;20155;-62
2022/10/16 05:17:15;;;;;;;3.58;1.75;;;12.50;99.90;;;;;;5032053;28;20025;-62
2022/10/16 05:19:40;;;;;;;5.20;2.38;;;12.40;99.90;;;;;;5032072;28;20479;-62
2022/10/16 05:22:06;;;;;;;3.40;1.77;;;12.40;99.90;;;;;;5014518;28;20021;-62
2022/10/16 05:24:31;;;;;;;3.85;1.60;;;12.30;99.90;;;;;;5030993;28;20049;-62
2022/10/16 05:26:57;;;;;;;3.40;1.55;;;12.30;99.90;;;;;;5031358;28;20049;-62
2022/10/16 05:29:23;;;;;;;2.50;1.52;;;12.20;99.90;;;;;;5030576;28;20026;-63
2022/10/16 05:31:52;;;;;;;3.45;1.80;;;12.20;99.90;;;;;;5030726;28;20023;-62
2022/10/16 05:34:18;;;;;;;2.92;1.63;;;12.20;99.90;;;;;;5021583;28;20022;-62
2022/10/16 05:36:45;;;;;;;3.80;1.70;;;12.20;99.90;;;;;;5012174;28;20517;-62
2022/10/16 05:39:10;;;;;;;2.63;1.98;;;12.30;99.90;;;;;;5013889;28;20018;-62
2022/10/16 05:41:36;;;;;;;3.95;1.90;;;12.20;99.90;;;;;;5015852;28;20041;-62
2022/10/16 05:44:05;;;;;;;3.63;1.90;;;12.20;99.90;;;;;;5013430;28;20112;-62
2022/10/16 05:46:31;;;;;;;2.47;1.63;;;12.30;99.90;;;;;;5029771;28;20490;-62
2022/10/16 05:48:56;;;;;;;3.70;2.00;;;12.20;99.90;;;;;;5014986;28;20156;-62
2022/10/16 05:51:22;;;;;;;5.63;1.90;;;12.20;99.90;;;;;;5015007;28;20030;-63
2022/10/16 05:53:47;;;;;;;3.28;1.83;;;12.30;99.90;;;;;;5015811;28;20049;-62
2022/10/16 05:56:13;;;;;;;2.75;1.60;;;12.20;99.90;;;;;;5013548;28;20482;-62
2022/10/16 05:58:40;;;;;;;2.70;1.77;;;12.20;99.90;;;;;;5024720;28;20030;-63
2022/10/16 06:01:14;;;;;;;2.78;2.00;;;12.20;99.90;;;;;;5027876;28;20033;-62
2022/10/16 06:03:40;;;;;;;5.40;2.10;;;12.20;99.90;;;;;;5017483;28;20022;-62
2022/10/16 06:06:11;;;;;;;3.45;1.90;;;12.20;99.90;;;;;;5031693;28;20048;-62
2022/10/16 06:08:37;;;;;;;4.63;1.98;;;12.20;99.90;;;;;;5028607;28;20025;-62
2022/10/16 06:11:09;;;;;;;4.32;2.20;;;12.10;99.90;;;;;;5028725;28;20070;-63
2022/10/16 06:13:35;;;;;;;5.32;2.30;;;12.10;99.90;;;;;;5030904;28;20022;-62
2022/10/16 06:16:01;;;;;;;3.72;1.80;;;12.10;99.90;;;;;;5031655;28;20470;-63
2022/10/16 06:18:28;;;;;;;3.00;2.13;;;12.00;99.90;;;;;;5026127;28;20025;-62
2022/10/16 06:20:54;;;;;;;2.05;1.52;;;12.10;99.90;;;;;;5028277;28;20029;-63
2022/10/16 06:23:20;;;;;;;3.67;2.40;;;12.10;99.90;;;;;;5030386;28;20018;-63
2022/10/16 06:25:45;;;;;;;4.32;2.15;;;12.10;99.90;;;;;;5030642;28;20018;-64
2022/10/16 06:28:11;;;;;;;3.60;2.00;;;12.10;99.90;;;;;;5027656;28;20436;-62
2022/10/16 06:30:36;;;;;;;3.65;2.28;;;12.10;99.90;;;;;;5029499;28;20025;-62
2022/10/16 06:33:02;;;;;;;2.70;1.88;;;12.10;99.90;;;;;;5023052;28;20494;-62
2022/10/16 06:35:29;;;;;;;4.05;2.03;;;12.10;99.90;;;;;;5025869;28;20030;-63
2022/10/16 06:37:54;;;;;;;4.95;2.38;;;12.20;99.90;;;;;;5023912;28;20033;-62
2022/10/16 06:40:20;;;;;;;4.82;1.90;;;12.20;99.90;;;;;;5028741;28;20042;-62
2022/10/16 06:42:45;;;;;;;3.22;2.00;;;12.20;99.90;;;;;;5025259;28;20081;-62
2022/10/16 06:45:12;;;;;;;4.15;2.38;;;12.30;99.90;;;;;;5030981;28;20523;-62
2022/10/16 06:47:38;;;;;;;3.67;2.28;;;12.40;99.90;;;;;;5030936;28;20021;-63
2022/10/16 06:50:06;;;;;;;4.07;2.35;;;12.40;99.90;;;;;;5027977;28;20022;-62
2022/10/16 06:52:32;;;;;;;3.63;2.15;;;12.50;99.90;;;;;;5023255;28;20184;-62
2022/10/16 06:54:57;;;;;;;6.60;2.28;;;12.50;99.90;;;;;;5026571;28;20112;-62
2022/10/16 06:57:23;;;;;;;4.53;2.30;;;12.60;99.90;;;;;;5030743;28;20051;-62
2022/10/16 06:59:48;;;;;;;3.85;2.03;;;12.60;99.90;;;;;;5030359;28;20029;-62
2022/10/16 07:02:14;;;;;;;6.57;2.65;;;12.70;99.90;;;;;;5030706;28;20083;-62
2022/10/16 07:04:39;;;;;;;5.18;2.55;;;12.80;99.90;;;;;;5030430;28;20013;-62
2022/10/16 07:07:05;;;;;;;6.53;2.30;;;12.90;99.90;;;;;;5030284;28;20017;-63
2022/10/16 07:09:30;;;;;;;4.28;2.38;;;12.90;99.90;;;;;;5029196;28;20025;-62
2022/10/16 07:11:56;;;;;;;4.80;2.42;;;13.00;99.90;;;;;;5027624;28;20141;-62
2022/10/16 07:14:22;;;;;;;4.72;2.20;;;13.00;99.90;;;;;;5026093;28;20029;-62
2022/10/16 07:16:48;;;;;;;4.60;2.20;;;13.10;99.90;;;;;;5030159;28;20021;-63
2022/10/16 07:19:15;;;;;;;4.78;2.20;;;13.10;99.90;;;;;;5029974;28;20018;-62
2022/10/16 07:21:41;;;;;;;7.97;2.33;;;13.10;99.90;;;;;;5032505;28;20021;-62
2022/10/16 07:24:31;;;;;;;;;;;;;;;;;;;;;
2022/10/16 07:27:31;;;;;;;5.50;1.98;;;13.30;99.90;;;;;;4597940;28;20616;-62
2022/10/16 07:29:57;;;;;;;3.33;1.88;;;13.30;99.90;;;;;;4672483;28;20360;-63
2022/10/16 07:32:36;;;;;;;4.65;1.83;;;13.40;99.90;;;;;;4648652;28;21156;-63
2022/10/16 07:35:30;;;;;;;3.67;1.98;;;13.40;99.90;;;;;;4638765;28;20584;-62
2022/10/16 07:38:13;;;;;;;4.55;1.52;;;13.50;99.90;;;;;;4652727;28;22042;-63
2022/10/16 07:41:36;;;;;;;2.63;1.70;;;13.50;99.90;;;;;;4623515;28;21103;-63
2022/10/16 07:48:34;;;;;;;5.93;1.98;;;13.70;99.90;;;;;;4628660;28;21700;-62
2022/10/16 07:51:02;;;;;;;4.40;1.65;;;13.80;99.90;;;;;;4685134;28;22103;-62
2022/10/16 07:53:28;;;;;;;4.18;1.92;;;13.80;99.90;;;;;;4698271;28;20030;-62
2022/10/16 07:56:48;;;;;;;3.47;1.90;;;13.80;99.90;;;;;;4497007;28;20742;-62
2022/10/16 07:59:14;;;;;;;4.30;1.63;;;13.90;99.90;;;;;;4534362;28;20709;-62
2022/10/16 08:01:43;;;;;;;4.43;1.67;;;13.90;99.90;;;;;;4576042;28;20551;-63
2022/10/16 08:04:09;;;;;;;4.70;1.85;;;14.00;99.90;;;;;;4639974;28;22654;-62
2022/10/16 08:06:37;;;;;;;6.47;1.63;;;14.10;99.90;;;;;;4608557;28;20575;-63
2022/10/16 08:09:18;;;;;;;2.72;1.48;;;14.10;99.90;;;;;;4594447;28;20573;-62
2022/10/16 08:11:44;;;;;;;3.53;1.50;;;14.20;99.90;;;;;;4643154;28;20478;-62
2022/10/16 08:14:10;;;;;;;4.22;1.70;;;14.20;99.90;;;;;;4667975;28;21406;-62
2022/10/16 08:16:35;;;;;;;4.47;1.73;;;14.30;99.90;;;;;;5032689;28;20038;-62
2022/10/16 08:19:01;;;;;;;3.83;1.40;;;14.30;99.90;;;;;;5032376;28;20084;-64
2022/10/16 08:21:26;;;;;;;4.93;1.60;;;14.40;99.90;;;;;;5026827;28;20030;-64
2022/10/16 08:23:53;;;;;;;4.28;1.50;;;14.40;99.90;;;;;;5029230;28;20162;-64
2022/10/16 08:26:19;;;;;;;2.97;1.77;;;14.40;99.90;;;;;;5023762;28;20067;-64
2022/10/16 08:28:45;;;;;;;4.15;1.50;;;14.50;99.90;;;;;;5028791;28;20120;-64
2022/10/16 08:31:13;;;;;;;2.55;1.20;;;14.60;99.90;;;;;;5020501;28;20137;-64
2022/10/16 08:33:41;;;;;;;2.83;1.00;;;14.60;99.90;;;;;;5028266;28;20029;-64
2022/10/16 08:36:07;;;;;;;2.78;1.40;;;14.70;99.90;;;;;;5025728;28;20167;-64
2022/10/16 08:38:33;;;;;;;2.72;1.27;;;14.70;99.90;;;;;;5026699;28;20596;-64
2022/10/16 08:41:30;;;;;;;4.45;1.42;;;14.70;99.90;;;;;;5026830;28;20040;-64
2022/10/16 08:44:33;;;;;;;3.53;1.27;;;14.80;99.90;;;;;;5028850;28;20041;-64
2022/10/16 08:47:20;;;;;;;3.17;1.25;;;14.90;99.90;;;;;;5032139;28;20048;-64
2022/10/16 08:49:58;;;;;;;4.40;1.30;;;14.90;99.90;;;;;;5032275;28;20393;-64
2022/10/16 08:52:28;;;;;;;5.85;1.13;;;15.00;99.90;;;;;;5032592;28;20033;-64
2022/10/16 08:54:55;;;;;;;4.22;1.17;;;15.10;99.90;;;;;;5022349;28;20037;-64
2022/10/16 08:57:22;;;;;;;3.95;1.13;;;15.10;99.90;;;;;;5025427;28;20032;-64
2022/10/16 08:59:48;;;;;;;6.00;1.60;;;15.20;99.90;;;;;;5025893;28;20025;-64
2022/10/16 09:02:34;;;;;;;3.30;0.90;;;15.30;99.90;;;;;;5024899;28;20018;-64
2022/10/16 09:05:18;;;;;;;5.03;1.55;;;15.40;99.90;;;;;;5031987;28;20440;-64
2022/10/16 09:07:54;;;;;;;3.88;1.55;;;15.40;99.90;;;;;;5032237;28;20029;-64
2022/10/16 09:10:47;;;;;;;5.15;1.15;;;15.50;99.90;;;;;;5016230;28;20037;-65
2022/10/16 09:13:29;;;;;;;5.22;1.35;;;15.60;99.90;;;;;;5024266;28;20133;-64
2022/10/16 09:16:11;;;;;;;3.75;1.10;;;15.70;99.90;;;;;;5023197;28;20435;-64
2022/10/16 09:19:12;;;;;;;4.47;1.17;;;15.80;99.90;;;;;;5019578;28;20465;-64
2022/10/16 09:21:45;;;;;;;3.13;1.08;;;16.00;99.90;;;;;;5030054;28;20033;-64
2022/10/16 09:24:19;;;;;;;5.63;1.08;;;16.10;99.90;;;;;;5032161;28;20014;-64
2022/10/16 09:26:46;;;;;;;3.55;1.30;;;16.10;99.90;;;;;;5020555;28;20026;-64
2022/10/16 09:29:13;;;;;;;2.65;0.98;;;16.20;99.90;;;;;;5031330;28;20112;-64
2022/10/16 09:31:39;;;;;;;5.15;1.02;;;16.20;99.90;;;;;;5031512;28;20856;-64
2022/10/16 09:34:06;;;;;;;2.65;1.10;;;16.30;99.90;;;;;;5031196;28;20109;-65
2022/10/16 09:36:41;;;;;;;4.75;1.00;;;16.50;99.90;;;;;;5032273;28;20497;-64
2022/10/16 09:39:10;;;;;;;4.75;1.10;;;16.60;99.90;;;;;;5031430;28;20057;-64
2022/10/16 09:41:39;;;;;;;6.72;1.23;;;16.70;99.90;;;;;;5029867;28;20026;-64
2022/10/16 09:44:14;;;;;;;4.47;1.27;;;16.90;99.90;;;;;;5028683;28;20030;-64
2022/10/16 09:46:42;;;;;;;2.50;0.90;;;17.10;99.90;;;;;;5025199;28;20025;-64
2022/10/16 09:49:24;;;;;;;8.43;1.15;;;17.30;99.90;;;;;;5028755;28;20079;-64
2022/10/16 09:51:51;;;;;;;5.60;1.42;;;17.50;99.90;;;;;;5018883;28;20474;-64
2022/10/16 09:54:19;;;;;;;4.32;2.05;;;17.70;99.90;;;;;;5031962;28;20040;-64
2022/10/16 09:56:49;;;;;;;7.65;1.13;;;17.80;99.80;;;;;;5019465;28;20033;-64
2022/10/16 09:59:19;;;;;;;5.43;0.90;;;17.90;99.20;;;;;;5032035;28;20041;-64
2022/10/16 10:01:46;;;;;;;5.13;1.30;;;18.20;99.20;;;;;;5019539;28;20026;-64
2022/10/16 10:04:12;;;;;;;7.22;1.70;;;18.50;98.90;;;;;;5031594;28;20101;-64
2022/10/16 10:06:45;;;;;;;3.88;0.93;;;18.90;98.60;;;;;;5029833;28;20100;-65
2022/10/16 10:09:23;;;;;;;3.90;0.98;;;19.60;98.00;;;;;;5029608;28;20393;-65
2022/10/16 10:11:57;;;;;;;4.13;0.90;;;22.30;94.90;;;;;;5017272;28;20033;-65
2022/10/16 10:14:36;;;;;;;4.93;0.75;;;24.90;90.10;;;;;;5032008;28;20037;-65
2022/10/16 10:17:05;;;;;;;3.70;1.33;;;27.30;81.00;;;;;;5019330;28;20018;-65
2022/10/16 10:19:57;;;;;;;6.37;1.07;;;29.30;70.30;;;;;;5029580;28;20110;-65
2022/10/16 10:22:38;;;;;;;3.78;1.10;;;30.20;63.10;;;;;;5030714;28;20021;-65
2022/10/16 10:25:12;;;;;;;3.65;1.00;;;31.90;57.90;;;;;;5027229;28;20037;-65
2022/10/16 10:28:01;;;;;;;3.60;1.05;;;33.40;54.60;;;;;;5033796;28;20029;-64
2022/10/16 10:30:52;;;;;;;3.55;1.20;;;34.60;50.80;;;;;;5018391;28;20040;-64
2022/10/16 10:33:36;;;;;;;3.22;0.95;;;35.50;47.10;;;;;;5033250;28;20029;-64
2022/10/16 10:36:14;;;;;;;3.15;0.90;;;36.60;46.10;;;;;;5032590;28;20025;-64
2022/10/16 10:38:57;;;;;;;3.05;0.93;;;38.30;43.70;;;;;;5034122;28;20036;-64
2022/10/16 10:41:38;;;;;;;4.57;1.00;;;37.80;41.60;;;;;;5028204;28;20029;-64
2022/10/16 10:44:24;;;;;;;5.80;1.40;;;38.30;41.50;;;;;;5017731;28;20080;-63
2022/10/16 10:46:54;;;;;;;3.95;1.00;;;39.70;40.50;;;;;;5034248;28;20026;-64
2022/10/16 10:49:30;;;;;;;3.40;0.98;;;40.40;38.30;;;;;;5034291;28;20041;-64
2022/10/16 10:52:04;;;;;;;3.90;1.00;;;41.70;38.30;;;;;;5032949;28;20029;-64
2022/10/16 10:54:48;;;;;;;2.25;0.95;;;42.10;37.20;;;;;;5029075;28;20029;-64
2022/10/16 10:57:29;;;;;;;5.03;1.60;;;42.00;37.10;;;;;;5015092;28;20033;-64
2022/10/16 11:00:05;;;;;;;4.22;1.20;;;42.10;36.00;;;;;;5022712;28;20397;-64
2022/10/16 11:02:40;;;;;;;3.42;1.17;;;41.80;35.50;;;;;;5031594;28;20039;-64
2022/10/16 11:05:15;;;;;;;3.63;0.93;;;41.70;36.00;;;;;;5033271;28;20096;-64
2022/10/16 11:07:57;;;;;;;3.80;1.00;;;41.40;35.50;;;;;;5032887;28;20024;-64
2022/10/16 11:10:27;;;;;;;4.05;1.10;;;39.50;35.20;;;;;;5026056;28;20025;-64
2022/10/16 11:13:15;;;;;;;3.47;1.17;;;38.70;35.70;;;;;;5025318;28;20033;-63
2022/10/16 11:15:43;;;;;;;3.17;0.98;;;39.80;35.80;;;;;;5033239;28;20096;-64
2022/10/16 11:18:18;;;;;;;4.15;1.00;;;40.80;34.80;;;;;;5024184;28;20516;-64
2022/10/16 11:21:01;;;;;;;3.97;1.30;;;39.80;34.80;;;;;;5032081;28;20040;-64
2022/10/16 11:23:41;;;;;;;3.15;1.02;;;37.90;35.20;;;;;;5033610;28;20531;-63
2022/10/16 11:26:16;;;;;;;3.65;1.27;;;35.80;37.10;;;;;;5032060;28;20473;-64
2022/10/16 11:29:02;;;;;;;4.97;1.58;;;36.10;38.70;;;;;;5045508;28;20473;-64
2022/10/16 11:31:59;;;;;;;4.85;1.10;;;37.90;37.60;;;;;;5032053;28;20033;-64
2022/10/16 11:34:34;;;;;;;3.33;1.00;;;39.50;36.60;;;;;;5032192;28;20497;-64
2022/10/16 11:37:14;;;;;;;3.70;1.20;;;40.70;35.40;;;;;;5032685;28;20475;-63
2022/10/16 11:39:42;;;;;;;3.63;1.08;;;41.60;34.30;;;;;;5030013;28;20516;-64
2022/10/16 11:42:18;;;;;;;3.17;1.10;;;42.20;33.80;;;;;;5031522;28;20033;-63
2022/10/16 11:44:54;;;;;;;2.78;1.00;;;42.70;33.60;;;;;;5031877;28;20041;-64
2022/10/16 11:47:45;;;;;;;3.17;1.08;;;42.20;33.40;;;;;;5027102;28;20026;-63
2022/10/16 11:50:17;;;;;;;2.92;1.05;;;42.40;33.80;;;;;;5026203;28;20333;-64
2022/10/16 11:53:09;;;;;;;2.75;1.13;;;43.00;33.40;;;;;;5031040;28;20035;-64
2022/10/16 11:55:40;;;;;;;4.47;1.30;;;43.40;33.30;;;;;;5032274;28;20071;-64
2022/10/16 11:58:32;;;;;;;4.15;1.35;;;43.70;32.80;;;;;;5030703;28;20049;-64
2022/10/16 12:01:20;;;;;;;7.82;1.80;;;44.00;32.60;;;;;;5031701;28;20028;-64
2022/10/16 12:04:16;;;;;;;4.90;1.38;;;43.20;31.30;;;;;;5029671;28;20091;-64
2022/10/16 12:06:57;;;;;;;2.67;1.17;;;42.40;32.30;;;;;;5017654;28;20482;-64
2022/10/16 12:09:27;;;;;;;4.18;1.33;;;41.40;33.30;;;;;;5031542;28;20084;-64
2022/10/16 12:11:53;;;;;;;2.72;1.08;;;41.70;34.10;;;;;;5030489;28;20025;-64
2022/10/16 12:14:34;;;;;;;2.03;1.02;;;42.40;33.10;;;;;;5032178;28;20029;-64
2022/10/16 12:17:21;;;;;;;4.32;1.77;;;42.60;32.70;;;;;;5023576;28;20017;-63
2022/10/16 12:20:21;;;;;;;4.68;1.35;;;42.30;32.00;;;;;;5029146;28;20033;-64
2022/10/16 12:22:57;;;;;;;4.80;1.40;;;41.00;32.20;;;;;;5008336;28;20041;-63
2022/10/16 12:25:30;;;;;;;6.15;1.38;;;38.50;33.00;;;;;;5031467;28;20540;-63
2022/10/16 12:28:01;;;;;;;5.43;1.10;;;36.80;34.10;;;;;;5031766;28;20022;-63
2022/10/16 12:30:30;;;;;;;4.32;1.42;;;35.90;35.50;;;;;;5024683;28;20532;-64
2022/10/16 12:32:58;;;;;;;4.18;1.20;;;36.50;35.70;;;;;;5032323;28;20112;-63
2022/10/16 12:35:29;;;;;;;3.33;1.40;;;36.50;35.10;;;;;;5032837;28;20541;-64
2022/10/16 12:38:14;;;;;;;5.85;1.10;;;35.60;35.50;;;;;;5032496;28;20029;-63
2022/10/16 12:40:40;;;;;;;4.85;1.20;;;34.90;36.40;;;;;;5032282;28;20032;-63
2022/10/16 12:43:33;;;;;;;5.63;1.40;;;34.00;37.40;;;;;;5031846;28;20049;-63
2022/10/16 12:46:01;;;;;;;5.03;1.38;;;33.20;38.10;;;;;;5022048;28;20091;-63
2022/10/16 12:48:29;;;;;;;3.05;1.00;;;32.20;39.20;;;;;;5026437;28;20436;-64
2022/10/16 12:50:54;;;;;;;3.63;1.20;;;31.60;39.80;;;;;;5018863;28;20190;-63
2022/10/16 12:53:23;;;;;;;4.70;1.08;;;31.40;39.90;;;;;;5033005;28;20498;-63
2022/10/16 12:56:03;;;;;;;3.10;1.13;;;31.60;40.20;;;;;;5024699;28;20018;-63
2022/10/16 12:59:02;;;;;;;4.00;1.23;;;31.70;39.90;;;;;;5032262;28;20033;-63
2022/10/16 13:01:36;;;;;;;4.20;1.05;;;31.30;40.00;;;;;;5026468;28;20032;-63
2022/10/16 13:04:58;;;;;;;5.55;0.95;;;30.60;40.60;;;;;;5031010;28;20017;-63
2022/10/16 13:07:45;;;;;;;3.10;0.98;;;30.90;40.80;;;;;;5007973;28;20063;-63
2022/10/16 13:10:31;;;;;;;6.32;1.35;;;30.90;40.90;;;;;;5027823;28;20076;-63
2022/10/16 13:13:03;;;;;;;3.22;1.10;;;31.40;40.90;;;;;;5026009;28;20117;-63
2022/10/16 13:15:50;;;;;;;4.20;0.95;;;32.70;40.10;;;;;;5020972;28;20108;-63